createdAt,value
2022-10-28T00:00:34.636Z,102029.39
2022-10-28T00:01:36.567Z,102032.88
2022-10-28T00:02:38.520Z,102028.56
2022-10-28T00:03:40.381Z,102031.17
2022-10-28T00:04:42.219Z,102034.66
2022-10-28T00:05:44.031Z,102034.61
2022-10-28T00:06:45.845Z,102030.27
2022-10-28T00:07:47.698Z,102029.44
2022-10-28T00:08:49.594Z,102029.44
2022-10-28T00:09:51.435Z,102034.66
2022-10-28T00:10:53.247Z,102033.81
2022-10-28T00:11:55.080Z,102031.25
2022-10-28T00:12:56.947Z,102034.69
2022-10-28T00:13:58.795Z,102032.95
2022-10-28T00:15:00.650Z,102035.64
2022-10-28T00:16:03.504Z,102035.64
2022-10-28T00:17:05.308Z,102035.64
2022-10-28T00:18:07.165Z,102035.64
2022-10-28T00:19:09.003Z,102037.34
2022-10-28T00:20:11.038Z,102030.34
2022-10-28T00:21:12.921Z,102030.34
2022-10-28T00:22:14.745Z,102031.25
2022-10-28T00:23:16.621Z,102033.03
2022-10-28T00:24:18.475Z,102029.52
2022-10-28T00:25:20.321Z,102033.86
2022-10-28T00:26:22.160Z,102032.08
2022-10-28T00:27:23.980Z,102032.95
2022-10-28T00:28:25.807Z,102025.12
2022-10-28T00:29:27.629Z,102032.08
2022-10-28T00:31:31.184Z,102021.65
2022-10-28T00:32:33.007Z,102027.73
2022-10-28T00:33:34.897Z,102031.25
2022-10-28T00:34:36.739Z,102029.48
2022-10-28T00:35:38.577Z,102031.25
2022-10-28T00:36:40.424Z,102025.05
2022-10-28T00:37:42.252Z,102025.05
2022-10-28T00:38:44.136Z,102038.17
2022-10-28T00:39:46.099Z,102032.08
2022-10-28T00:40:47.932Z,102027.73
2022-10-28T00:41:49.783Z,102034.73
2022-10-28T00:42:51.939Z,102032.08
2022-10-28T00:43:54.007Z,102032.05
2022-10-28T00:44:55.854Z,102035.48
2022-10-28T00:45:57.686Z,102036.34
2022-10-28T00:46:59.634Z,102035.41
2022-10-28T00:48:01.455Z,102033.62
2022-10-28T00:49:03.344Z,102033.58
2022-10-28T00:50:05.288Z,102034.45
2022-10-28T00:51:07.137Z,102036.19
2022-10-28T00:52:08.970Z,102041.44
2022-10-28T00:53:10.812Z,102039.67
2022-10-28T00:54:12.710Z,102036.23
2022-10-28T00:55:14.570Z,102041.44
2022-10-28T00:56:16.958Z,102039.70
2022-10-28T00:57:18.852Z,102035.32
2022-10-28T00:58:20.686Z,102043.14
2022-10-28T00:59:22.575Z,102043.14
2022-10-28T01:00:24.411Z,102041.40
2022-10-28T01:01:26.327Z,102036.23
2022-10-28T01:02:28.288Z,102037.93
2022-10-28T01:03:30.107Z,102040.53
2022-10-28T01:04:31.994Z,102040.58
2022-10-28T01:05:33.830Z,102039.70
2022-10-28T01:06:35.654Z,102042.31
2022-10-28T01:07:37.497Z,102039.70
2022-10-28T01:08:39.327Z,102037.97
2022-10-28T01:09:41.216Z,102044.09
2022-10-28T01:10:43.180Z,102043.19
2022-10-28T01:11:45.017Z,102044.96
2022-10-28T01:12:46.859Z,102038.88
2022-10-28T01:13:48.694Z,102045.83
2022-10-28T01:14:50.587Z,102044.96
2022-10-28T01:15:52.420Z,102039.75
2022-10-28T01:16:54.362Z,102038.88
2022-10-28T01:17:56.207Z,102043.23
2022-10-28T01:18:58.079Z,102044.13
2022-10-28T01:19:59.962Z,102044.13
2022-10-28T01:21:01.790Z,102050.22
2022-10-28T01:22:03.643Z,102040.66
2022-10-28T01:23:05.472Z,102048.48
2022-10-28T01:24:07.296Z,102045.00
2022-10-28T01:25:09.176Z,102038.91
2022-10-28T01:26:11.249Z,102044.09
2022-10-28T01:27:13.076Z,102039.75
2022-10-28T01:28:14.902Z,102038.88
2022-10-28T01:29:16.730Z,102037.97
2022-10-28T01:30:18.603Z,102043.19
2022-10-28T01:31:20.462Z,102040.58
2022-10-28T01:32:22.282Z,102040.58
2022-10-28T01:33:24.111Z,102048.40
2022-10-28T01:34:25.952Z,102039.70
2022-10-28T01:35:27.869Z,102041.48
2022-10-28T01:36:29.767Z,102044.96
2022-10-28T01:37:31.599Z,102043.19
2022-10-28T01:38:33.440Z,102041.48
2022-10-28T01:39:35.282Z,102043.14
2022-10-28T01:40:37.155Z,102044.05
2022-10-28T01:41:39.019Z,102043.14
2022-10-28T01:42:40.864Z,102043.14
2022-10-28T01:43:42.699Z,102044.92
2022-10-28T01:44:44.529Z,102042.27
2022-10-28T01:45:46.392Z,102042.27
2022-10-28T01:46:48.220Z,102044.01
2022-10-28T01:47:50.261Z,102046.58
2022-10-28T01:48:52.196Z,102044.84
2022-10-28T01:49:54.020Z,102045.67
2022-10-28T01:50:55.998Z,102048.28
2022-10-28T01:51:57.829Z,102044.76
2022-10-28T01:52:59.651Z,102048.23
2022-10-28T01:54:01.480Z,102036.94
2022-10-28T01:55:03.336Z,102042.19
2022-10-28T01:56:05.422Z,102042.15
2022-10-28T01:57:07.669Z,102036.06
2022-10-28T01:58:09.490Z,102036.06
2022-10-28T01:59:11.317Z,102036.06
2022-10-28T02:00:14.377Z,102048.20
2022-10-28T02:01:16.296Z,102038.62
2022-10-28T02:02:18.276Z,102042.11
2022-10-28T02:03:20.109Z,102042.98
2022-10-28T02:04:21.948Z,102042.11
2022-10-28T02:05:23.779Z,102036.03
2022-10-28T02:06:25.663Z,102042.94
2022-10-28T02:07:27.476Z,102037.73
2022-10-28T02:08:29.320Z,102041.23
2022-10-28T02:09:31.151Z,102036.90
2022-10-28T02:10:33.077Z,102042.11
2022-10-28T02:11:34.947Z,102042.94
2022-10-28T02:12:36.808Z,102046.41
2022-10-28T02:13:38.624Z,102043.77
2022-10-28T02:14:40.451Z,102041.16
2022-10-28T02:15:42.284Z,102045.47
2022-10-28T02:16:44.156Z,102048.11
2022-10-28T02:17:46.009Z,102048.11
2022-10-28T02:18:47.846Z,102049.85
2022-10-28T02:19:49.686Z,102048.07
2022-10-28T02:20:51.523Z,102043.77
2022-10-28T02:21:53.409Z,102048.07
2022-10-28T02:22:55.248Z,102050.64
2022-10-28T02:23:57.068Z,102052.38
2022-10-28T02:24:58.906Z,102047.16
2022-10-28T02:26:00.749Z,102052.38
2022-10-28T02:27:02.629Z,102049.77
2022-10-28T02:28:04.593Z,102048.94
2022-10-28T02:29:06.456Z,102054.16
2022-10-28T02:30:08.596Z,102048.03
2022-10-28T02:31:10.427Z,102051.55
2022-10-28T02:32:12.282Z,102055.85
2022-10-28T02:33:14.127Z,102054.16
2022-10-28T02:34:15.957Z,102054.08
2022-10-28T02:35:17.779Z,102054.08
2022-10-28T02:36:19.595Z,102049.77
2022-10-28T02:37:21.477Z,102048.03
2022-10-28T02:38:23.324Z,102056.69
2022-10-28T02:39:25.158Z,102056.69
2022-10-28T02:40:26.994Z,102054.03
2022-10-28T02:41:28.819Z,102054.00
2022-10-28T02:42:30.711Z,102054.86
2022-10-28T02:43:32.577Z,102052.25
2022-10-28T02:44:34.389Z,102058.30
2022-10-28T02:45:36.219Z,102055.69
2022-10-28T02:46:38.036Z,102049.64
2022-10-28T02:47:39.918Z,102050.52
2022-10-28T02:48:41.721Z,102054.78
2022-10-28T02:49:43.535Z,102053.95
2022-10-28T02:50:45.348Z,102052.25
2022-10-28T02:51:47.153Z,102054.00
2022-10-28T02:52:49.131Z,102055.69
2022-10-28T02:53:50.930Z,102059.09
2022-10-28T02:54:52.762Z,102051.27
2022-10-28T02:55:54.579Z,102053.87
2022-10-28T02:56:56.422Z,102049.56
2022-10-28T02:57:58.333Z,102056.48
2022-10-28T02:59:00.241Z,102049.48
2022-10-28T03:00:02.083Z,102048.58
2022-10-28T03:01:03.938Z,102052.96
2022-10-28T03:02:05.733Z,102052.09
2022-10-28T03:03:07.557Z,102059.00
2022-10-28T03:04:09.364Z,102055.57
2022-10-28T03:05:11.230Z,102056.44
2022-10-28T03:06:13.599Z,102053.00
2022-10-28T03:07:15.467Z,102058.22
2022-10-28T03:08:17.347Z,102059.09
2022-10-28T03:09:19.169Z,102050.40
2022-10-28T03:10:21.206Z,102056.44
2022-10-28T03:11:23.043Z,102059.09
2022-10-28T03:12:24.852Z,102054.78
2022-10-28T03:13:26.724Z,102054.78
2022-10-28T03:14:28.555Z,102058.22
2022-10-28T03:15:30.403Z,102065.13
2022-10-28T03:16:32.122Z,102055.53
2022-10-28T03:17:34.007Z,102055.53
2022-10-28T03:18:35.843Z,102058.96
2022-10-28T03:19:37.674Z,102056.31
2022-10-28T03:20:39.492Z,102062.44
2022-10-28T03:21:41.315Z,102063.30
2022-10-28T03:22:43.105Z,102058.96
2022-10-28T03:23:44.970Z,102061.61
2022-10-28T03:24:46.800Z,102064.22
2022-10-28T03:25:48.609Z,102062.56
2022-10-28T03:26:50.422Z,102061.66
2022-10-28T03:27:52.282Z,102066.91
2022-10-28T03:28:54.156Z,102059.09
2022-10-28T03:29:56.112Z,102063.44
2022-10-28T03:30:57.997Z,102060.90
2022-10-28T03:31:59.848Z,102057.39
2022-10-28T03:33:01.680Z,102065.20
2022-10-28T03:34:03.535Z,102065.20
2022-10-28T03:35:05.347Z,102064.37
2022-10-28T03:36:07.867Z,102073.10
2022-10-28T03:37:09.688Z,102066.98
2022-10-28T03:38:11.524Z,102062.60
2022-10-28T03:39:13.399Z,102064.37
2022-10-28T03:40:15.937Z,102064.42
2022-10-28T03:41:17.754Z,102065.28
2022-10-28T03:42:19.590Z,102060.94
2022-10-28T03:43:21.416Z,102066.16
2022-10-28T03:44:23.302Z,102071.38
2022-10-28T03:45:25.282Z,102067.89
2022-10-28T03:46:29.053Z,102071.33
2022-10-28T03:47:30.776Z,102067.81
2022-10-28T03:48:32.587Z,102064.30
2022-10-28T03:49:34.444Z,102063.51
2022-10-28T03:50:36.360Z,102073.94
2022-10-28T03:51:38.172Z,102063.51
2022-10-28T03:52:39.990Z,102066.11
2022-10-28T03:53:41.799Z,102070.42
2022-10-28T03:54:43.687Z,102070.42
2022-10-28T03:55:45.530Z,102067.77
2022-10-28T03:56:47.368Z,102072.08
2022-10-28T03:57:49.208Z,102070.42
2022-10-28T03:58:54.084Z,102078.24
2022-10-28T03:59:54.749Z,102074.73
2022-10-28T04:00:56.681Z,102074.64
2022-10-28T04:01:58.757Z,102076.42
2022-10-28T04:03:00.709Z,102079.03
2022-10-28T04:04:02.511Z,102077.25
2022-10-28T04:05:04.353Z,102074.64
2022-10-28T04:06:06.382Z,102079.03
2022-10-28T04:07:08.201Z,102082.51
2022-10-28T04:08:10.037Z,102082.55
2022-10-28T04:09:11.868Z,102085.16
2022-10-28T04:10:14.155Z,102083.41
2022-10-28T04:11:15.965Z,102082.51
2022-10-28T04:12:17.803Z,102079.07
2022-10-28T04:13:19.652Z,102086.89
2022-10-28T04:14:21.454Z,102088.63
2022-10-28T04:15:23.326Z,102086.84
2022-10-28T04:16:25.189Z,102079.03
2022-10-28T04:17:27.095Z,102087.72
2022-10-28T04:18:28.909Z,102085.03
2022-10-28T04:19:30.733Z,102088.45
2022-10-28T04:20:32.696Z,102084.90
2022-10-28T04:21:34.533Z,102090.11
2022-10-28T04:22:36.357Z,102091.02
2022-10-28T04:23:38.162Z,102085.80
2022-10-28T04:24:39.969Z,102080.63
2022-10-28T04:25:41.804Z,102084.98
2022-10-28T04:26:43.645Z,102079.77
2022-10-28T04:27:45.471Z,102077.20
2022-10-28T04:28:47.302Z,102085.07
2022-10-28T04:29:49.120Z,102085.07
2022-10-28T04:30:51.015Z,102084.20
2022-10-28T04:31:52.989Z,102080.77
2022-10-28T04:32:54.812Z,102085.98
2022-10-28T04:33:56.647Z,102085.94
2022-10-28T04:34:58.482Z,102085.07
2022-10-28T04:36:00.338Z,102093.75
2022-10-28T04:37:02.165Z,102089.38
2022-10-28T04:38:03.973Z,102088.45
2022-10-28T04:39:05.794Z,102084.94
2022-10-28T04:40:08.053Z,102091.11
2022-10-28T04:41:09.920Z,102090.24
2022-10-28T04:42:11.755Z,102086.80
2022-10-28T04:43:13.576Z,102089.41
2022-10-28T04:44:16.471Z,102091.98
2022-10-28T04:45:18.301Z,102096.31
2022-10-28T04:46:20.186Z,102100.63
2022-10-28T04:47:22.108Z,102097.15
2022-10-28T04:48:24.022Z,102096.31
2022-10-28T04:49:25.744Z,102098.92
2022-10-28T04:50:27.570Z,102101.53
2022-10-28T04:51:29.430Z,102096.31
2022-10-28T04:52:31.248Z,102102.41
2022-10-28T04:53:33.089Z,102099.80
2022-10-28T04:54:34.920Z,102102.41
2022-10-28T04:55:36.766Z,102094.58
2022-10-28T04:56:38.649Z,102100.67
2022-10-28T04:57:40.488Z,102108.53
2022-10-28T04:58:42.318Z,102105.92
2022-10-28T04:59:44.154Z,102105.97
2022-10-28T05:00:46.008Z,102099.92
2022-10-28T05:01:47.973Z,102107.83
2022-10-28T05:02:50.139Z,102104.39
2022-10-28T05:03:51.963Z,102106.99
2022-10-28T05:04:53.794Z,102105.26
2022-10-28T05:05:55.637Z,102105.30
2022-10-28T05:06:57.522Z,102105.30
2022-10-28T05:07:59.362Z,102100.96
2022-10-28T05:09:01.262Z,102100.13
2022-10-28T05:10:03.097Z,102106.22
2022-10-28T05:11:04.941Z,102101.00
2022-10-28T05:12:06.822Z,102106.22
2022-10-28T05:13:08.774Z,102111.43
2022-10-28T05:14:10.615Z,102105.39
2022-10-28T05:15:17.392Z,102116.72
2022-10-28T05:16:19.760Z,102114.94
2022-10-28T05:17:21.632Z,102114.94
2022-10-28T05:18:23.733Z,102115.77
2022-10-28T05:19:25.567Z,102118.34
2022-10-28T05:20:27.400Z,102126.98
2022-10-28T05:21:29.248Z,102124.42
2022-10-28T05:22:31.125Z,102123.55
2022-10-28T05:23:32.948Z,102118.34
2022-10-28T05:24:34.771Z,102118.30
2022-10-28T05:25:36.630Z,102123.55
2022-10-28T05:26:38.477Z,102120.07
2022-10-28T05:27:40.372Z,102120.98
2022-10-28T05:28:42.202Z,102127.08
2022-10-28T05:29:44.051Z,102128.80
2022-10-28T05:30:45.917Z,102123.50
2022-10-28T05:31:47.749Z,102124.26
2022-10-28T05:32:52.911Z,102125.95
2022-10-28T05:33:53.297Z,102127.59
2022-10-28T05:34:55.167Z,102123.08
2022-10-28T05:35:56.959Z,102127.33
2022-10-28T05:36:58.788Z,102115.95
2022-10-28T05:38:00.679Z,102125.50
2022-10-28T05:39:02.529Z,102126.34
2022-10-28T05:40:04.475Z,102128.02
2022-10-28T05:41:06.300Z,102128.02
2022-10-28T05:42:08.127Z,102134.98
2022-10-28T05:43:10.007Z,102131.55
2022-10-28T05:44:11.856Z,102127.33
2022-10-28T05:45:13.695Z,102134.28
2022-10-28T05:46:15.950Z,102127.28
2022-10-28T05:47:17.776Z,102127.20
2022-10-28T05:48:19.667Z,102135.02
2022-10-28T05:49:21.558Z,102133.33
2022-10-28T05:50:23.956Z,102137.70
2022-10-28T05:51:25.785Z,102140.36
2022-10-28T05:52:27.712Z,102141.28
2022-10-28T05:53:29.608Z,102139.50
2022-10-28T05:54:31.446Z,102135.19
2022-10-28T05:55:33.281Z,102137.84
2022-10-28T05:56:35.186Z,102139.59
2022-10-28T05:57:37.046Z,102134.28
2022-10-28T05:58:38.992Z,102132.63
2022-10-28T05:59:40.840Z,102140.49
2022-10-28T06:00:42.890Z,102137.94
2022-10-28T06:01:44.797Z,102132.81
2022-10-28T06:02:46.677Z,102129.30
2022-10-28T06:03:48.573Z,102129.30
2022-10-28T06:04:50.520Z,102137.20
2022-10-28T06:05:52.370Z,102137.16
2022-10-28T06:06:54.789Z,102131.95
2022-10-28T06:07:56.621Z,102143.33
2022-10-28T06:08:58.510Z,102137.30
2022-10-28T06:10:00.354Z,102146.92
2022-10-28T06:11:00.671Z,102140.88
2022-10-28T06:12:02.509Z,102144.36
2022-10-28T06:13:04.354Z,102147.88
2022-10-28T06:14:06.229Z,102147.93
2022-10-28T06:15:08.066Z,102154.05
2022-10-28T06:16:11.622Z,102141.80
2022-10-28T06:17:13.441Z,102147.02
2022-10-28T06:18:18.089Z,102146.14
2022-10-28T06:19:18.999Z,102143.53
2022-10-28T06:20:20.869Z,102143.58
2022-10-28T06:21:24.524Z,102145.28
2022-10-28T06:22:26.349Z,102149.70
2022-10-28T06:23:28.202Z,102146.27
2022-10-28T06:24:30.101Z,102139.33
2022-10-28T06:25:31.939Z,102140.27
2022-10-28T06:26:33.774Z,102144.63
2022-10-28T06:27:35.628Z,102141.23
2022-10-28T06:28:37.502Z,102144.71
2022-10-28T06:29:39.368Z,102146.45
2022-10-28T06:30:41.206Z,102145.62
2022-10-28T06:31:43.066Z,102143.01
2022-10-28T06:32:44.895Z,102141.31
2022-10-28T06:33:46.745Z,102141.31
2022-10-28T06:34:48.608Z,102140.45
2022-10-28T06:35:51.575Z,102146.53
2022-10-28T06:36:53.400Z,102144.84
2022-10-28T06:37:55.715Z,102144.01
2022-10-28T06:38:57.737Z,102144.92
2022-10-28T06:39:59.616Z,102153.70
2022-10-28T06:41:01.454Z,102146.75
2022-10-28T06:42:03.305Z,102149.36
2022-10-28T06:43:05.132Z,102149.27
2022-10-28T06:44:06.963Z,102143.97
2022-10-28T06:45:08.830Z,102145.66
2022-10-28T06:46:10.871Z,102156.09
2022-10-28T06:47:14.214Z,102151.75
2022-10-28T06:48:16.043Z,102150.92
2022-10-28T06:49:17.882Z,102152.66
2022-10-28T06:50:19.793Z,102153.61
2022-10-28T06:51:21.639Z,102157.09
2022-10-28T06:52:23.467Z,102152.70
2022-10-28T06:53:25.318Z,102153.56
2022-10-28T06:54:27.155Z,102154.36
2022-10-28T06:55:29.036Z,102158.61
2022-10-28T06:56:30.889Z,102159.44
2022-10-28T06:57:32.737Z,102152.36
2022-10-28T06:58:34.588Z,102151.48
2022-10-28T06:59:36.405Z,102156.70
2022-10-28T07:00:38.271Z,102153.27
2022-10-28T07:01:40.234Z,102151.62
2022-10-28T07:02:45.073Z,102162.05
2022-10-28T07:03:45.826Z,102156.88
2022-10-28T07:04:47.657Z,102151.70
2022-10-28T07:05:49.951Z,102154.36
2022-10-28T07:06:52.166Z,102153.56
2022-10-28T07:07:54.286Z,102152.70
2022-10-28T07:08:56.381Z,102157.05
2022-10-28T07:09:58.223Z,102149.18
2022-10-28T07:11:00.119Z,102150.05
2022-10-28T07:12:05.101Z,102149.23
2022-10-28T07:13:05.599Z,102151.92
2022-10-28T07:14:07.376Z,102152.84
2022-10-28T07:15:09.181Z,102156.34
2022-10-28T07:16:11.854Z,102149.36
2022-10-28T07:17:13.666Z,102153.74
2022-10-28T07:18:15.477Z,102149.39
2022-10-28T07:19:21.682Z,102155.48
2022-10-28T07:20:20.951Z,102151.13
2022-10-28T07:21:22.870Z,102154.66
2022-10-28T07:22:25.809Z,102151.22
2022-10-28T07:23:27.875Z,102156.47
2022-10-28T07:24:29.747Z,102156.44
2022-10-28T07:25:31.551Z,102147.70
2022-10-28T07:26:33.422Z,102148.61
2022-10-28T07:27:35.222Z,102157.34
2022-10-28T07:28:37.037Z,102157.39
2022-10-28T07:29:38.878Z,102164.34
2022-10-28T07:30:40.719Z,102155.69
2022-10-28T07:31:42.601Z,102153.16
2022-10-28T07:32:44.436Z,102155.86
2022-10-28T07:33:46.277Z,102154.99
2022-10-28T07:34:48.116Z,102161.11
2022-10-28T07:35:49.936Z,102163.81
2022-10-28T07:36:51.830Z,102161.23
2022-10-28T07:37:53.792Z,102157.77
2022-10-28T07:38:55.618Z,102161.23
2022-10-28T07:39:57.428Z,102162.11
2022-10-28T07:40:59.327Z,102154.33
2022-10-28T07:42:01.261Z,102159.50
2022-10-28T07:43:03.100Z,102156.02
2022-10-28T07:44:04.936Z,102157.73
2022-10-28T07:45:06.780Z,102158.59
2022-10-28T07:46:08.983Z,102156.81
2022-10-28T07:47:10.833Z,102154.20
2022-10-28T07:48:12.639Z,102154.16
2022-10-28T07:49:14.453Z,102157.64
2022-10-28T07:50:16.476Z,102154.16
2022-10-28T07:51:18.316Z,102155.94
2022-10-28T07:52:20.193Z,102159.42
2022-10-28T07:53:24.857Z,102166.42
2022-10-28T07:54:26.005Z,102160.30
2022-10-28T07:55:27.834Z,102171.72
2022-10-28T07:56:29.678Z,102171.72
2022-10-28T07:57:31.559Z,102158.72
2022-10-28T07:58:33.340Z,102168.28
2022-10-28T07:59:35.133Z,102170.94
2022-10-28T08:00:36.965Z,102166.63
2022-10-28T08:01:40.527Z,102170.14
2022-10-28T08:02:42.481Z,102174.53
2022-10-28T08:03:44.309Z,102174.53
2022-10-28T08:04:46.136Z,102171.09
2022-10-28T08:05:47.964Z,102175.45
2022-10-28T08:06:49.846Z,102171.14
2022-10-28T08:07:52.153Z,102177.19
2022-10-28T08:08:54.155Z,102178.92
2022-10-28T08:09:57.168Z,102177.19
2022-10-28T08:10:58.988Z,102177.19
2022-10-28T08:12:00.795Z,102172.01
2022-10-28T08:13:02.646Z,102172.92
2022-10-28T08:14:04.449Z,102168.61
2022-10-28T08:15:06.248Z,102164.30
2022-10-28T08:16:09.659Z,102180.04
2022-10-28T08:17:11.375Z,102168.77
2022-10-28T08:18:13.233Z,102171.46
2022-10-28T08:19:15.061Z,102172.34
2022-10-28T08:20:16.903Z,102171.50
2022-10-28T08:21:18.711Z,102168.94
2022-10-28T08:22:20.539Z,102170.67
2022-10-28T08:23:22.409Z,102170.75
2022-10-28T08:24:24.325Z,102169.88
2022-10-28T08:25:26.156Z,102165.57
2022-10-28T08:26:27.993Z,102168.22
2022-10-28T08:27:29.789Z,102171.70
2022-10-28T08:28:31.640Z,102171.70
2022-10-28T08:29:33.467Z,102166.48
2022-10-28T08:30:50.234Z,102168.26
2022-10-28T08:31:38.916Z,102176.17
2022-10-28T08:32:40.743Z,102170.05
2022-10-28T08:33:42.639Z,102177.08
2022-10-28T08:34:44.464Z,102176.20
2022-10-28T08:35:46.259Z,102178.86
2022-10-28T08:36:48.114Z,102175.34
2022-10-28T08:37:49.878Z,102178.90
2022-10-28T08:38:51.728Z,102179.81
2022-10-28T08:39:53.534Z,102178.97
2022-10-28T08:40:55.469Z,102175.54
2022-10-28T08:41:57.278Z,102179.05
2022-10-28T08:42:59.120Z,102178.19
2022-10-28T08:44:01.022Z,102175.62
2022-10-28T08:45:02.911Z,102182.58
2022-10-28T08:46:04.775Z,102175.58
2022-10-28T08:47:06.629Z,102175.58
2022-10-28T08:48:08.437Z,102171.18
2022-10-28T08:49:10.274Z,102180.72
2022-10-28T08:50:12.192Z,102173.80
2022-10-28T08:51:14.002Z,102172.85
2022-10-28T08:52:15.844Z,102170.23
2022-10-28T08:53:17.682Z,102171.14
2022-10-28T08:54:19.573Z,102170.28
2022-10-28T08:55:21.732Z,102172.05
2022-10-28T08:56:23.547Z,102170.36
2022-10-28T08:57:25.377Z,102169.52
2022-10-28T08:58:27.201Z,102175.73
2022-10-28T08:59:29.089Z,102171.41
2022-10-28T09:00:31.118Z,102174.06
2022-10-28T09:01:33.073Z,102173.27
2022-10-28T09:02:35.156Z,102175.02
2022-10-28T09:03:38.991Z,102176.79
2022-10-28T09:04:40.650Z,102178.53
2022-10-28T09:05:42.483Z,102181.18
2022-10-28T09:06:44.519Z,102180.31
2022-10-28T09:07:46.358Z,102169.87
2022-10-28T09:08:48.132Z,102182.96
2022-10-28T09:09:49.992Z,102178.60
2022-10-28T09:10:51.839Z,102181.22
2022-10-28T09:11:53.655Z,102175.95
2022-10-28T09:12:55.850Z,102178.56
2022-10-28T09:13:57.991Z,102175.09
2022-10-28T09:14:59.836Z,102168.16
2022-10-28T09:16:01.639Z,102168.16
2022-10-28T09:17:03.483Z,102168.16
2022-10-28T09:18:05.322Z,102168.20
2022-10-28T09:19:07.140Z,102161.23
2022-10-28T09:20:09.424Z,102166.50
2022-10-28T09:21:11.265Z,102161.27
2022-10-28T09:22:15.274Z,102159.53
2022-10-28T09:23:17.367Z,102165.70
2022-10-28T09:24:19.197Z,102165.70
2022-10-28T09:25:21.069Z,102161.31
2022-10-28T09:26:22.981Z,102163.88
2022-10-28T09:27:24.848Z,102162.97
2022-10-28T09:28:26.662Z,102160.36
2022-10-28T09:29:28.502Z,102162.97
2022-10-28T09:30:30.385Z,102156.88
2022-10-28T09:31:32.219Z,102155.21
2022-10-28T09:32:34.073Z,102162.18
2022-10-28T09:33:35.905Z,102167.41
2022-10-28T09:34:37.758Z,102168.31
2022-10-28T09:35:39.649Z,102166.57
2022-10-28T09:36:41.483Z,102167.41
2022-10-28T09:37:43.309Z,102161.34
2022-10-28T09:38:45.154Z,102161.34
2022-10-28T09:39:46.995Z,102159.64
2022-10-28T09:40:48.960Z,102168.31
2022-10-28T09:41:51.694Z,102160.44
2022-10-28T09:42:53.547Z,102156.92
2022-10-28T09:43:55.369Z,102162.18
2022-10-28T09:44:57.204Z,102168.31
2022-10-28T09:45:59.091Z,102163.05
2022-10-28T09:47:00.936Z,102165.70
2022-10-28T09:48:02.794Z,102163.09
2022-10-28T09:49:04.617Z,102166.57
2022-10-28T09:50:06.544Z,102170.99
2022-10-28T09:51:08.444Z,102164.90
2022-10-28T09:52:13.957Z,102171.06
2022-10-28T09:53:13.930Z,102171.06
2022-10-28T09:54:15.748Z,102169.36
2022-10-28T09:55:17.580Z,102162.44
2022-10-28T09:56:19.570Z,102163.34
2022-10-28T09:57:21.443Z,102165.12
2022-10-28T09:58:23.261Z,102171.25
2022-10-28T09:59:25.087Z,102163.41
2022-10-28T10:00:26.916Z,102163.38
2022-10-28T10:01:28.865Z,102159.93
2022-10-28T10:02:30.734Z,102158.16
2022-10-28T10:03:32.691Z,102156.41
2022-10-28T10:04:34.538Z,102157.31
2022-10-28T10:05:36.376Z,102151.19
2022-10-28T10:06:38.256Z,102152.05
2022-10-28T10:07:40.082Z,102152.93
2022-10-28T10:08:41.929Z,102154.70
2022-10-28T10:09:43.783Z,102156.41
2022-10-28T10:10:45.721Z,102159.93
2022-10-28T10:11:47.595Z,102155.61
2022-10-28T10:12:51.515Z,102153.88
2022-10-28T10:13:53.206Z,102155.69
2022-10-28T10:14:55.033Z,102154.85
2022-10-28T10:15:56.856Z,102156.59
2022-10-28T10:16:58.722Z,102155.76
2022-10-28T10:18:00.622Z,102155.76
2022-10-28T10:19:02.471Z,102155.80
2022-10-28T10:20:04.396Z,102154.05
2022-10-28T10:21:06.233Z,102147.12
2022-10-28T10:22:08.131Z,102144.50
2022-10-28T10:23:09.978Z,102149.66
2022-10-28T10:24:11.800Z,102146.11
2022-10-28T10:25:13.625Z,102150.46
2022-10-28T10:26:16.192Z,102147.02
2022-10-28T10:27:18.048Z,102137.44
2022-10-28T10:28:20.018Z,102143.56
2022-10-28T10:29:21.854Z,102147.95
2022-10-28T10:30:23.687Z,102151.41
2022-10-28T10:31:25.528Z,102153.18
2022-10-28T10:32:27.419Z,102151.44
2022-10-28T10:33:29.260Z,102150.53
2022-10-28T10:34:31.085Z,102147.92
2022-10-28T10:35:32.934Z,102139.17
2022-10-28T10:36:34.787Z,102147.84
2022-10-28T10:37:36.651Z,102144.40
2022-10-28T10:38:38.482Z,102138.30
2022-10-28T10:39:40.332Z,102138.34
2022-10-28T10:40:42.285Z,102147.98
2022-10-28T10:41:44.114Z,102147.98
2022-10-28T10:42:57.458Z,102145.41
2022-10-28T10:43:49.670Z,102144.55
2022-10-28T10:44:51.529Z,102150.60
2022-10-28T10:45:53.359Z,102139.28
2022-10-28T10:46:55.194Z,102147.16
2022-10-28T10:47:57.090Z,102144.58
2022-10-28T10:48:58.898Z,102141.97
2022-10-28T10:50:00.747Z,102147.22
2022-10-28T10:51:02.586Z,102146.39
2022-10-28T10:52:04.429Z,102147.30
2022-10-28T10:53:06.327Z,102142.91
2022-10-28T10:54:08.162Z,102150.71
2022-10-28T10:55:09.992Z,102148.09
2022-10-28T10:56:12.743Z,102145.48
2022-10-28T10:57:14.574Z,102142.03
2022-10-28T10:58:16.456Z,102145.48
2022-10-28T10:59:18.574Z,102144.64
2022-10-28T11:00:20.390Z,102143.77
2022-10-28T11:01:22.344Z,102142.03
2022-10-28T11:02:24.419Z,102146.42
2022-10-28T11:03:26.480Z,102147.33
2022-10-28T11:04:28.370Z,102144.69
2022-10-28T11:05:35.915Z,102142.97
2022-10-28T11:06:33.970Z,102145.55
2022-10-28T11:07:35.802Z,102151.69
2022-10-28T11:08:37.671Z,102141.20
2022-10-28T11:09:39.504Z,102147.30
2022-10-28T11:10:41.342Z,102142.94
2022-10-28T11:11:43.183Z,102139.45
2022-10-28T11:12:45.031Z,102145.59
2022-10-28T11:13:46.893Z,102147.33
2022-10-28T11:14:48.915Z,102136.88
2022-10-28T11:15:50.756Z,102144.75
2022-10-28T11:16:52.601Z,102141.27
2022-10-28T11:17:54.712Z,102143.01
2022-10-28T11:18:56.725Z,102146.49
2022-10-28T11:19:58.580Z,102139.45
2022-10-28T11:21:00.508Z,102149.03
2022-10-28T11:22:02.360Z,102145.52
2022-10-28T11:23:04.204Z,102143.77
2022-10-28T11:24:06.071Z,102143.77
2022-10-28T11:25:07.902Z,102139.39
2022-10-28T11:26:10.145Z,102142.03
2022-10-28T11:27:12.002Z,102146.39
2022-10-28T11:28:13.851Z,102138.48
2022-10-28T11:29:15.728Z,102140.22
2022-10-28T11:30:17.585Z,102144.58
2022-10-28T11:31:19.439Z,102147.19
2022-10-28T11:32:21.277Z,102140.19
2022-10-28T11:33:29.896Z,102142.80
2022-10-28T11:34:26.809Z,102138.45
2022-10-28T11:35:28.634Z,102137.61
2022-10-28T11:36:30.570Z,102144.61
2022-10-28T11:37:32.390Z,102141.97
2022-10-28T11:38:34.200Z,102147.16
2022-10-28T11:39:36.057Z,102143.64
2022-10-28T11:40:37.862Z,102146.22
2022-10-28T11:41:39.677Z,102143.64
2022-10-28T11:42:41.494Z,102141.93
2022-10-28T11:43:43.320Z,102147.16
2022-10-28T11:44:45.212Z,102148.83
2022-10-28T11:45:50.348Z,102149.70
2022-10-28T11:46:50.788Z,102151.41
2022-10-28T11:47:52.987Z,102145.37